Time;durP1;ratioP1;P1;durP2;ratioP2;P2;SDS_P1;SDS_P2;PMS_P1;PMS_P2;Temp;Humidity;BMP_temperature;BMP_pressure;BME280_temperature;BME280_humidity;BME280_pressure;Samples;Min_cycle;Max_cycle;Signal;HPM_P1;HPM_P2
2024/04/09 00:02:20;;;;;;;16.00;6.77;;;;;;;;;;5419476;26;20506;-81
2024/04/09 00:04:46;;;;;;;16.63;7.70;;;;;;;;;;5418229;26;20432;-80
2024/04/09 00:07:12;;;;;;;21.03;7.13;;;;;;;;;;5419636;26;20444;-81
2024/04/09 00:09:42;;;;;;;13.00;7.33;;;;;;;;;;5418125;26;20444;-81
2024/04/09 00:12:11;;;;;;;13.90;6.80;;;;;;;;;;5418400;26;20441;-81
2024/04/09 00:14:37;;;;;;;14.53;7.40;;;;;;;;;;5418698;26;20505;-81
2024/04/09 00:17:07;;;;;;;13.60;6.50;;;;;;;;;;5418297;26;20464;-81
2024/04/09 00:19:33;;;;;;;23.87;7.70;;;;;;;;;;5418298;26;20445;-81
2024/04/09 00:21:59;;;;;;;19.23;7.60;;;;;;;;;;5419494;26;21021;-81
2024/04/09 00:24:25;;;;;;;18.27;6.70;;;;;;;;;;5419261;26;20799;-81
2024/04/09 00:26:51;;;;;;;10.10;6.37;;;;;;;;;;5418655;26;20562;-81
2024/04/09 00:29:18;;;;;;;12.43;7.63;;;;;;;;;;5419100;26;20488;-81
2024/04/09 00:31:44;;;;;;;13.93;6.27;;;;;;;;;;5419629;26;20847;-81
2024/04/09 00:34:10;;;;;;;13.90;6.70;;;;;;;;;;5418437;26;20416;-82
2024/04/09 00:36:36;;;;;;;18.27;7.27;;;;;;;;;;5419267;26;20476;-82
2024/04/09 00:39:03;;;;;;;8.83;6.20;;;;;;;;;;5419310;26;20484;-83
2024/04/09 00:41:29;;;;;;;16.57;6.73;;;;;;;;;;5416804;26;20477;-82
2024/04/09 00:43:55;;;;;;;10.40;6.40;;;;;;;;;;5418710;26;20448;-82
2024/04/09 00:46:21;;;;;;;27.43;6.97;;;;;;;;;;5419458;26;20566;-81
2024/04/09 00:48:47;;;;;;;23.23;7.63;;;;;;;;;;5419290;26;20534;-82
2024/04/09 00:51:14;;;;;;;9.90;7.50;;;;;;;;;;5419894;26;20448;-80
2024/04/09 00:53:43;;;;;;;16.43;6.67;;;;;;;;;;5419357;26;20803;-81
2024/04/09 00:56:09;;;;;;;10.27;7.10;;;;;;;;;;5417283;26;20444;-80
2024/04/09 00:58:35;;;;;;;13.60;5.93;;;;;;;;;;5418680;26;20412;-82
2024/04/09 01:01:03;;;;;;;11.80;6.10;;;;;;;;;;5418535;26;20491;-81
2024/04/09 01:03:30;;;;;;;9.13;6.43;;;;;;;;;;5418355;26;20529;-80
2024/04/09 01:05:56;;;;;;;12.40;6.60;;;;;;;;;;5419447;26;20452;-81
2024/04/09 01:08:22;;;;;;;14.17;6.17;;;;;;;;;;5419050;26;20854;-80
2024/04/09 01:10:48;;;;;;;8.20;6.20;;;;;;;;;;5418503;26;20829;-81
2024/04/09 01:13:14;;;;;;;12.63;6.80;;;;;;;;;;5419176;26;20562;-83
2024/04/09 01:15:40;;;;;;;12.67;7.40;;;;;;;;;;5417690;26;20875;-82
2024/04/09 01:18:08;;;;;;;13.73;6.80;;;;;;;;;;5417148;26;20529;-82
2024/04/09 01:20:34;;;;;;;11.33;7.33;;;;;;;;;;5418860;26;20504;-83
2024/04/09 01:23:00;;;;;;;17.03;7.50;;;;;;;;;;5418721;26;20774;-84
2024/04/09 01:25:27;;;;;;;10.37;6.80;;;;;;;;;;5417916;26;20441;-84
2024/04/09 01:27:54;;;;;;;11.13;6.03;;;;;;;;;;5418728;26;21064;-83
2024/04/09 01:30:20;;;;;;;9.30;6.80;;;;;;;;;;5418902;26;20424;-83
2024/04/09 01:32:49;;;;;;;7.43;6.43;;;;;;;;;;5417805;26;20574;-83
2024/04/09 01:35:15;;;;;;;11.83;7.30;;;;;;;;;;5418447;26;20437;-84
2024/04/09 01:37:41;;;;;;;14.43;7.53;;;;;;;;;;5418403;26;20501;-84
2024/04/09 01:40:07;;;;;;;8.83;6.60;;;;;;;;;;5417787;26;20432;-84
2024/04/09 01:42:33;;;;;;;11.23;6.00;;;;;;;;;;5417932;26;20425;-84
2024/04/09 01:44:59;;;;;;;17.60;7.00;;;;;;;;;;5418847;26;20449;-84
2024/04/09 01:47:26;;;;;;;8.10;6.53;;;;;;;;;;5417342;26;20505;-84
2024/04/09 01:49:52;;;;;;;13.53;6.70;;;;;;;;;;5418291;26;20575;-84
2024/04/09 01:52:19;;;;;;;8.13;6.50;;;;;;;;;;5418554;26;20500;-83
2024/04/09 01:54:46;;;;;;;9.80;7.07;;;;;;;;;;5417707;26;20416;-83
2024/04/09 01:57:12;;;;;;;11.93;7.10;;;;;;;;;;5419036;26;20413;-83
2024/04/09 01:59:39;;;;;;;7.40;6.60;;;;;;;;;;5418334;26;20563;-83
2024/04/09 02:02:06;;;;;;;14.03;7.70;;;;;;;;;;5418613;26;20468;-83
2024/04/09 02:04:32;;;;;;;10.93;7.00;;;;;;;;;;5418600;26;20907;-83
2024/04/09 02:06:58;;;;;;;9.97;6.40;;;;;;;;;;5418335;26;20555;-83
2024/04/09 02:09:25;;;;;;;12.43;6.53;;;;;;;;;;5418210;26;20452;-83
2024/04/09 02:11:52;;;;;;;13.33;6.60;;;;;;;;;;5417592;26;20480;-83
2024/04/09 02:14:18;;;;;;;9.50;6.40;;;;;;;;;;5416734;26;20496;-83
2024/04/09 02:16:45;;;;;;;10.27;6.93;;;;;;;;;;5418410;26;20758;-83
2024/04/09 02:19:12;;;;;;;9.37;6.80;;;;;;;;;;5417794;26;20460;-83
2024/04/09 02:21:38;;;;;;;8.20;7.40;;;;;;;;;;5418941;26;20512;-83
2024/04/09 02:24:03;;;;;;;8.53;7.70;;;;;;;;;;5418450;26;20441;-83
2024/04/09 02:26:31;;;;;;;10.73;7.00;;;;;;;;;;5418409;26;20444;-83
2024/04/09 02:28:58;;;;;;;11.50;6.90;;;;;;;;;;5417531;26;22383;-83
2024/04/09 02:31:24;;;;;;;8.17;6.90;;;;;;;;;;5417770;26;20464;-83
2024/04/09 02:33:50;;;;;;;8.93;6.40;;;;;;;;;;5404546;26;21003;-83
2024/04/09 02:36:16;;;;;;;8.13;7.20;;;;;;;;;;5382576;26;20556;-83
2024/04/09 02:38:43;;;;;;;8.47;6.90;;;;;;;;;;5381895;26;20422;-83
2024/04/09 02:41:13;;;;;;;9.03;7.00;;;;;;;;;;5380925;26;20450;-84
2024/04/09 02:43:39;;;;;;;14.93;7.13;;;;;;;;;;5381769;26;20418;-83
2024/04/09 02:46:05;;;;;;;10.83;7.10;;;;;;;;;;5382061;26;20446;-83
2024/04/09 02:48:31;;;;;;;8.30;6.97;;;;;;;;;;5381207;26;20494;-83
2024/04/09 02:51:01;;;;;;;8.10;7.30;;;;;;;;;;5382219;26;20450;-83
2024/04/09 02:53:27;;;;;;;12.43;7.23;;;;;;;;;;5381986;26;20495;-83
2024/04/09 02:56:02;;;;;;;10.33;7.77;;;;;;;;;;5381686;26;20498;-83
2024/04/09 02:58:28;;;;;;;8.00;6.77;;;;;;;;;;5382250;26;20460;-83
2024/04/09 03:00:55;;;;;;;8.43;6.77;;;;;;;;;;5381710;26;20450;-83
2024/04/09 03:03:21;;;;;;;8.90;7.03;;;;;;;;;;5382181;26;20474;-83
2024/04/09 03:05:47;;;;;;;7.40;6.70;;;;;;;;;;5382124;26;20784;-83
2024/04/09 03:08:13;;;;;;;12.50;7.73;;;;;;;;;;5382266;26;20438;-83
2024/04/09 03:10:39;;;;;;;10.63;7.30;;;;;;;;;;5381554;26;20430;-83
2024/04/09 03:13:05;;;;;;;12.23;8.17;;;;;;;;;;5385357;26;20466;-83
2024/04/09 03:15:31;;;;;;;10.87;7.53;;;;;;;;;;5417526;26;20465;-83
2024/04/09 03:17:58;;;;;;;14.70;10.23;;;;;;;;;;5416846;26;20545;-83
2024/04/09 03:20:24;;;;;;;7.80;7.10;;;;;;;;;;5416945;26;20433;-83
2024/04/09 03:22:50;;;;;;;11.77;7.83;;;;;;;;;;5416048;26;20453;-83
2024/04/09 03:25:16;;;;;;;8.13;7.53;;;;;;;;;;5416317;26;20867;-83
2024/04/09 03:27:42;;;;;;;10.43;7.97;;;;;;;;;;5416929;26;20456;-83
2024/04/09 03:30:11;;;;;;;10.23;9.20;;;;;;;;;;5416807;26;20568;-83
2024/04/09 03:32:37;;;;;;;12.67;9.67;;;;;;;;;;5417098;26;20424;-83
2024/04/09 03:35:04;;;;;;;9.30;7.77;;;;;;;;;;5416807;26;20501;-83
2024/04/09 03:37:30;;;;;;;17.07;10.20;;;;;;;;;;5416988;26;20484;-83
2024/04/09 03:39:56;;;;;;;15.60;9.90;;;;;;;;;;5416549;26;20723;-83
2024/04/09 03:42:22;;;;;;;16.10;10.90;;;;;;;;;;5416892;26;20467;-83
2024/04/09 03:44:48;;;;;;;12.10;8.80;;;;;;;;;;5416397;26;20452;-83
2024/04/09 03:47:14;;;;;;;10.90;8.30;;;;;;;;;;5416863;26;20461;-83
2024/04/09 03:49:40;;;;;;;10.20;8.33;;;;;;;;;;5409668;26;20468;-83
2024/04/09 03:52:06;;;;;;;12.07;8.33;;;;;;;;;;5435257;26;20411;-83
2024/04/09 03:54:32;;;;;;;9.40;8.40;;;;;;;;;;5430927;26;20444;-84
2024/04/09 03:57:03;;;;;;;12.00;8.00;;;;;;;;;;5416354;26;20413;-83
2024/04/09 03:59:33;;;;;;;8.53;7.87;;;;;;;;;;5416496;26;20785;-83
2024/04/09 04:01:59;;;;;;;8.50;7.60;;;;;;;;;;5416540;26;20576;-84
2024/04/09 04:04:25;;;;;;;10.27;8.90;;;;;;;;;;5411402;26;20790;-83
2024/04/09 04:06:51;;;;;;;13.13;8.10;;;;;;;;;;5379024;26;20450;-83
2024/04/09 04:09:17;;;;;;;8.27;7.60;;;;;;;;;;5380812;26;20445;-83
2024/04/09 04:11:43;;;;;;;12.90;8.30;;;;;;;;;;5396271;26;20464;-83
2024/04/09 04:14:09;;;;;;;12.53;7.50;;;;;;;;;;5416295;26;20508;-83
2024/04/09 04:16:35;;;;;;;10.07;7.87;;;;;;;;;;5416628;26;20962;-82
2024/04/09 04:19:01;;;;;;;7.70;7.00;;;;;;;;;;5416160;26;20772;-82
2024/04/09 04:21:27;;;;;;;7.30;6.80;;;;;;;;;;5416299;26;20440;-82
2024/04/09 04:23:56;;;;;;;9.03;7.20;;;;;;;;;;5416334;26;20452;-82
2024/04/09 04:26:25;;;;;;;6.97;6.57;;;;;;;;;;5416528;26;20432;-82
2024/04/09 04:28:52;;;;;;;7.27;6.60;;;;;;;;;;5416569;26;20490;-81
2024/04/09 04:31:22;;;;;;;7.43;6.83;;;;;;;;;;5414417;26;20519;-83
2024/04/09 04:33:52;;;;;;;7.47;6.97;;;;;;;;;;5416195;26;20766;-83
2024/04/09 04:36:18;;;;;;;7.63;6.97;;;;;;;;;;5419690;26;20420;-81
2024/04/09 04:38:45;;;;;;;7.53;7.13;;;;;;;;;;5419857;26;20493;-83
2024/04/09 04:41:11;;;;;;;7.53;6.80;;;;;;;;;;5419878;26;20424;-82
2024/04/09 04:43:38;;;;;;;8.17;7.60;;;;;;;;;;5419476;26;20923;-81
2024/04/09 04:46:04;;;;;;;7.50;7.10;;;;;;;;;;5419976;26;20892;-82
2024/04/09 04:48:30;;;;;;;7.33;6.83;;;;;;;;;;5419569;26;20789;-82
2024/04/09 04:50:56;;;;;;;7.80;7.00;;;;;;;;;;5419305;26;20565;-82
2024/04/09 04:53:22;;;;;;;7.60;6.93;;;;;;;;;;5419964;26;20428;-82
2024/04/09 04:55:51;;;;;;;8.20;7.40;;;;;;;;;;5419207;26;20499;-82
2024/04/09 04:58:21;;;;;;;7.47;7.00;;;;;;;;;;5419437;26;20485;-82
2024/04/09 05:00:47;;;;;;;7.50;6.80;;;;;;;;;;5418749;26;20795;-82
2024/04/09 05:03:13;;;;;;;6.70;6.30;;;;;;;;;;5419380;26;20506;-82
2024/04/09 05:05:39;;;;;;;6.97;6.50;;;;;;;;;;5419614;26;20940;-81
2024/04/09 05:08:05;;;;;;;7.30;6.67;;;;;;;;;;5419239;26;20433;-82
2024/04/09 05:10:31;;;;;;;6.77;6.37;;;;;;;;;;5419392;26;20425;-82
2024/04/09 05:12:57;;;;;;;7.30;6.67;;;;;;;;;;5419019;26;21036;-82
2024/04/09 05:15:24;;;;;;;6.97;6.63;;;;;;;;;;5419519;26;20473;-82
2024/04/09 05:17:50;;;;;;;6.97;6.67;;;;;;;;;;5419188;26;20563;-82
2024/04/09 05:20:17;;;;;;;7.00;6.70;;;;;;;;;;5419385;26;20486;-82
2024/04/09 05:22:53;;;;;;;7.77;7.20;;;;;;;;;;5419565;26;20504;-82
2024/04/09 05:25:19;;;;;;;8.33;7.73;;;;;;;;;;5419389;26;20436;-82
2024/04/09 05:27:45;;;;;;;8.20;7.70;;;;;;;;;;5419774;26;20710;-82
2024/04/09 05:30:11;;;;;;;7.73;7.33;;;;;;;;;;5418763;26;21057;-82
2024/04/09 05:32:39;;;;;;;8.50;7.87;;;;;;;;;;5418972;26;20425;-81
2024/04/09 05:35:09;;;;;;;7.00;6.60;;;;;;;;;;5419088;26;20444;-82
2024/04/09 05:37:35;;;;;;;7.93;7.30;;;;;;;;;;5419425;26;20424;-82
2024/04/09 05:40:01;;;;;;;7.90;7.50;;;;;;;;;;5419592;26;20440;-81
2024/04/09 05:42:27;;;;;;;7.30;6.80;;;;;;;;;;5420312;26;20460;-82
2024/04/09 05:44:53;;;;;;;7.33;6.93;;;;;;;;;;5399138;26;20445;-82
2024/04/09 05:47:19;;;;;;;7.63;7.20;;;;;;;;;;5384029;26;20426;-81
2024/04/09 05:49:45;;;;;;;8.30;7.90;;;;;;;;;;5384043;26;20886;-82
2024/04/09 05:52:12;;;;;;;7.97;7.47;;;;;;;;;;5383924;26;20510;-82
2024/04/09 05:54:44;;;;;;;8.10;7.70;;;;;;;;;;5383936;26;20419;-82
2024/04/09 05:57:10;;;;;;;8.20;7.90;;;;;;;;;;5383324;26;20446;-83
2024/04/09 05:59:36;;;;;;;8.27;7.87;;;;;;;;;;5383370;26;20930;-83
2024/04/09 06:02:03;;;;;;;9.03;8.33;;;;;;;;;;5383266;26;20442;-83
2024/04/09 06:04:29;;;;;;;9.40;8.80;;;;;;;;;;5383817;26;20449;-83
2024/04/09 06:06:55;;;;;;;9.00;8.60;;;;;;;;;;5383766;26;20945;-82
2024/04/09 06:09:21;;;;;;;9.17;8.77;;;;;;;;;;5384155;26;20496;-82
2024/04/09 06:11:47;;;;;;;8.57;8.27;;;;;;;;;;5411999;26;20420;-81
2024/04/09 06:14:13;;;;;;;8.10;7.80;;;;;;;;;;5419319;26;20790;-82
2024/04/09 06:16:39;;;;;;;8.13;7.70;;;;;;;;;;5419838;26;20426;-83
2024/04/09 06:19:06;;;;;;;7.67;7.37;;;;;;;;;;5419926;26;20445;-81
2024/04/09 06:21:32;;;;;;;8.33;7.53;;;;;;;;;;5419303;26;20509;-81
2024/04/09 06:23:58;;;;;;;7.70;7.40;;;;;;;;;;5411796;26;20439;-81
2024/04/09 06:26:24;;;;;;;7.60;7.30;;;;;;;;;;5412684;26;20823;-82
2024/04/09 06:28:51;;;;;;;7.20;6.80;;;;;;;;;;5419754;26;20484;-82
2024/04/09 06:31:17;;;;;;;7.20;6.80;;;;;;;;;;5419939;26;20795;-82
2024/04/09 06:33:46;;;;;;;7.07;6.77;;;;;;;;;;5419836;26;20496;-82
2024/04/09 06:36:12;;;;;;;6.90;6.63;;;;;;;;;;5418860;26;20955;-82
2024/04/09 06:38:38;;;;;;;6.00;5.80;;;;;;;;;;5419104;26;20409;-83
2024/04/09 06:41:05;;;;;;;5.13;4.80;;;;;;;;;;5419014;26;20448;-80
2024/04/09 06:43:31;;;;;;;5.37;5.07;;;;;;;;;;5419023;26;20417;-80
2024/04/09 06:45:57;;;;;;;5.00;4.80;;;;;;;;;;5419034;26;20508;-81
2024/04/09 06:48:23;;;;;;;5.13;4.63;;;;;;;;;;5419534;26;20492;-82
2024/04/09 06:50:50;;;;;;;4.70;4.40;;;;;;;;;;5417275;26;20563;-83
2024/04/09 06:53:16;;;;;;;5.10;4.60;;;;;;;;;;5418739;26;20784;-83
2024/04/09 06:55:43;;;;;;;5.13;4.70;;;;;;;;;;5418920;26;20452;-84
2024/04/09 06:58:10;;;;;;;5.93;5.50;;;;;;;;;;5417625;26;20445;-82
2024/04/09 07:00:36;;;;;;;8.20;4.97;;;;;;;;;;5418788;26;20437;-84
2024/04/09 07:03:04;;;;;;;4.80;4.50;;;;;;;;;;5418234;26;20492;-85
2024/04/09 07:05:30;;;;;;;5.50;5.10;;;;;;;;;;5418677;26;20719;-82
2024/04/09 07:07:56;;;;;;;5.20;4.90;;;;;;;;;;5418366;26;20493;-85
2024/04/09 07:10:22;;;;;;;5.07;4.87;;;;;;;;;;5418220;26;20789;-81
2024/04/09 07:12:50;;;;;;;5.47;5.07;;;;;;;;;;5418191;26;20566;-83
2024/04/09 07:15:16;;;;;;;4.93;4.63;;;;;;;;;;5418170;26;20461;-82
2024/04/09 07:17:42;;;;;;;5.20;4.90;;;;;;;;;;5416622;26;20452;-82
2024/04/09 07:20:08;;;;;;;4.90;4.57;;;;;;;;;;5418744;26;20491;-83
2024/04/09 07:22:34;;;;;;;5.57;4.90;;;;;;;;;;5418205;26;20818;-84
2024/04/09 07:25:00;;;;;;;5.33;4.93;;;;;;;;;;5418337;26;20553;-81
2024/04/09 07:27:26;;;;;;;5.20;5.00;;;;;;;;;;5415109;26;20741;-84
2024/04/09 07:29:52;;;;;;;5.03;4.83;;;;;;;;;;5384773;26;20597;-83
2024/04/09 07:32:18;;;;;;;5.27;4.93;;;;;;;;;;5381122;26;20517;-83
2024/04/09 07:34:46;;;;;;;5.83;5.40;;;;;;;;;;5395301;26;20956;-83
2024/04/09 07:37:12;;;;;;;7.97;5.00;;;;;;;;;;5413178;26;20590;-85
2024/04/09 07:39:38;;;;;;;5.70;5.20;;;;;;;;;;5416157;26;21078;-85
2024/04/09 07:42:04;;;;;;;5.57;5.30;;;;;;;;;;5413314;26;20484;-85
2024/04/09 07:44:30;;;;;;;5.20;4.90;;;;;;;;;;5415118;26;20824;-81
2024/04/09 07:46:56;;;;;;;6.23;5.17;;;;;;;;;;5416253;26;20440;-82
2024/04/09 07:49:22;;;;;;;7.53;5.23;;;;;;;;;;5384469;26;20948;-82
2024/04/09 07:51:48;;;;;;;5.07;4.83;;;;;;;;;;5416335;26;20579;-81
2024/04/09 07:54:13;;;;;;;5.80;5.37;;;;;;;;;;5416234;26;20499;-83
2024/04/09 07:56:39;;;;;;;5.17;4.97;;;;;;;;;;5415281;26;20500;-83
2024/04/09 07:59:06;;;;;;;5.80;5.40;;;;;;;;;;5415786;26;20489;-84
2024/04/09 08:01:32;;;;;;;4.90;4.50;;;;;;;;;;5416295;26;20445;-82
2024/04/09 08:03:58;;;;;;;7.53;4.80;;;;;;;;;;5414957;26;20484;-83
2024/04/09 08:06:27;;;;;;;5.10;4.70;;;;;;;;;;5414534;26;20429;-84
2024/04/09 08:08:54;;;;;;;4.80;4.50;;;;;;;;;;5417429;26;20536;-86
2024/04/09 08:11:20;;;;;;;4.43;4.23;;;;;;;;;;5418511;26;20448;-84
2024/04/09 08:13:46;;;;;;;5.50;5.20;;;;;;;;;;5420461;26;20848;-83
2024/04/09 08:16:12;;;;;;;4.80;4.50;;;;;;;;;;5419505;26;20562;-84
2024/04/09 08:18:38;;;;;;;4.70;4.50;;;;;;;;;;5418654;26;20493;-84
2024/04/09 08:21:05;;;;;;;4.53;4.33;;;;;;;;;;5419653;26;20563;-83
2024/04/09 08:23:31;;;;;;;4.77;4.43;;;;;;;;;;5419321;26;20441;-83
2024/04/09 08:25:57;;;;;;;4.60;4.40;;;;;;;;;;5418770;26;20866;-87
2024/04/09 08:28:23;;;;;;;5.10;4.70;;;;;;;;;;5417807;26;20460;-82
2024/04/09 08:30:53;;;;;;;4.80;4.50;;;;;;;;;;5449069;26;20519;-83
2024/04/09 08:33:20;;;;;;;5.53;4.40;;;;;;;;;;5455525;26;20435;-83
2024/04/09 08:35:46;;;;;;;4.50;4.20;;;;;;;;;;5421828;26;21012;-83
2024/04/09 08:38:13;;;;;;;4.50;4.10;;;;;;;;;;5418547;26;20541;-83
2024/04/09 08:40:39;;;;;;;5.57;5.07;;;;;;;;;;5416999;26;20465;-83
2024/04/09 08:43:06;;;;;;;5.00;4.70;;;;;;;;;;5417673;26;20449;-87
2024/04/09 08:45:32;;;;;;;5.30;4.90;;;;;;;;;;5407828;26;20520;-83
2024/04/09 08:48:00;;;;;;;5.43;4.93;;;;;;;;;;5417695;26;20456;-84
2024/04/09 08:50:26;;;;;;;5.40;4.90;;;;;;;;;;5418904;26;20428;-82
2024/04/09 08:52:55;;;;;;;5.33;4.90;;;;;;;;;;5417712;26;20567;-82
2024/04/09 08:55:21;;;;;;;5.73;5.13;;;;;;;;;;5419306;26;20440;-82
2024/04/09 08:57:48;;;;;;;5.43;4.87;;;;;;;;;;5419510;26;20826;-81
2024/04/09 09:00:16;;;;;;;4.93;4.50;;;;;;;;;;5419968;26;20436;-82
2024/04/09 09:02:43;;;;;;;4.97;4.50;;;;;;;;;;5419808;26;20488;-82
2024/04/09 09:05:19;;;;;;;5.67;4.77;;;;;;;;;;5419409;26;20444;-82
2024/04/09 09:07:45;;;;;;;4.67;4.47;;;;;;;;;;5419907;26;20518;-81
2024/04/09 09:10:13;;;;;;;7.07;6.13;;;;;;;;;;5419550;26;20509;-82
2024/04/09 09:12:39;;;;;;;5.83;5.00;;;;;;;;;;5419523;26;20452;-82
2024/04/09 09:15:05;;;;;;;4.90;4.70;;;;;;;;;;5419243;26;20558;-82
2024/04/09 09:17:31;;;;;;;5.10;4.80;;;;;;;;;;5417644;26;20905;-82
2024/04/09 09:19:58;;;;;;;5.10;4.80;;;;;;;;;;5416444;26;20460;-82
2024/04/09 09:22:30;;;;;;;5.30;4.97;;;;;;;;;;5419031;26;20476;-82
2024/04/09 09:24:59;;;;;;;5.30;5.10;;;;;;;;;;5419273;26;20531;-82
2024/04/09 09:27:26;;;;;;;5.40;5.00;;;;;;;;;;5418945;26;20440;-82
2024/04/09 09:29:55;;;;;;;5.47;5.00;;;;;;;;;;5418952;26;20783;-82
2024/04/09 09:32:23;;;;;;;5.00;4.20;;;;;;;;;;5418674;26;20571;-82
2024/04/09 09:34:49;;;;;;;4.90;4.60;;;;;;;;;;5419195;26;20444;-82
2024/04/09 09:37:15;;;;;;;5.10;4.70;;;;;;;;;;5418590;26;20436;-82
2024/04/09 09:39:41;;;;;;;4.93;4.63;;;;;;;;;;5418530;26;20453;-82
2024/04/09 09:42:10;;;;;;;7.13;4.47;;;;;;;;;;5418547;26;20582;-82
2024/04/09 09:44:37;;;;;;;5.87;3.80;;;;;;;;;;5419176;26;20424;-82
2024/04/09 09:47:04;;;;;;;5.67;3.80;;;;;;;;;;5418419;26;20906;-84
2024/04/09 09:49:30;;;;;;;9.60;3.93;;;;;;;;;;5416910;26;21009;-82
2024/04/09 09:51:57;;;;;;;3.80;3.63;;;;;;;;;;5418137;26;20478;-82
2024/04/09 09:54:23;;;;;;;9.60;3.80;;;;;;;;;;5418132;26;21035;-82
2024/04/09 09:56:51;;;;;;;5.97;3.57;;;;;;;;;;5418354;26;20441;-82
2024/04/09 09:59:18;;;;;;;5.00;3.70;;;;;;;;;;5416035;26;21043;-82
2024/04/09 10:01:48;;;;;;;3.60;3.40;;;;;;;;;;5418358;26;20433;-82
2024/04/09 10:04:22;;;;;;;4.07;3.67;;;;;;;;;;5417799;26;20505;-82
2024/04/09 10:06:57;;;;;;;4.30;3.57;;;;;;;;;;5417940;26;20538;-82
2024/04/09 10:09:41;;;;;;;3.90;3.60;;;;;;;;;;5418500;26;20440;-82
2024/04/09 10:12:07;;;;;;;3.77;3.57;;;;;;;;;;5418038;26;20437;-82
2024/04/09 10:14:40;;;;;;;4.50;4.10;;;;;;;;;;5418298;26;20440;-81
2024/04/09 10:17:12;;;;;;;3.50;3.13;;;;;;;;;;5418327;26;20440;-83
2024/04/09 10:19:38;;;;;;;3.90;3.60;;;;;;;;;;5418075;26;20808;-82
2024/04/09 10:22:04;;;;;;;4.23;3.93;;;;;;;;;;5418472;26;21023;-84
2024/04/09 10:24:30;;;;;;;4.33;4.03;;;;;;;;;;5416782;26;20528;-82
2024/04/09 10:26:57;;;;;;;4.10;3.70;;;;;;;;;;5418383;26;20965;-82
2024/04/09 10:29:24;;;;;;;4.07;3.87;;;;;;;;;;5418784;26;20496;-82
2024/04/09 10:31:50;;;;;;;4.60;3.83;;;;;;;;;;5417060;26;20523;-83
2024/04/09 10:34:23;;;;;;;4.53;4.13;;;;;;;;;;5417479;26;20444;-82
2024/04/09 10:36:50;;;;;;;5.77;4.00;;;;;;;;;;5417843;26;21050;-82
2024/04/09 10:39:16;;;;;;;4.10;3.80;;;;;;;;;;5418153;26;20493;-83
2024/04/09 10:41:42;;;;;;;5.00;4.60;;;;;;;;;;5416239;26;20549;-83
2024/04/09 10:44:11;;;;;;;4.67;4.17;;;;;;;;;;5418924;26;20592;-85
2024/04/09 10:46:37;;;;;;;4.83;4.20;;;;;;;;;;5418238;26;20417;-83
2024/04/09 10:49:05;;;;;;;5.27;4.93;;;;;;;;;;5417943;26;20420;-83
2024/04/09 10:51:31;;;;;;;5.93;5.40;;;;;;;;;;5417963;26;20440;-83
2024/04/09 10:54:03;;;;;;;4.47;4.17;;;;;;;;;;5418058;26;20425;-85
2024/04/09 10:56:31;;;;;;;5.37;4.80;;;;;;;;;;5416191;26;20515;-81
2024/04/09 10:58:57;;;;;;;6.10;4.50;;;;;;;;;;5418237;26;20536;-82
2024/04/09 11:01:23;;;;;;;4.40;4.10;;;;;;;;;;5417360;26;20940;-81
2024/04/09 11:03:49;;;;;;;5.07;4.50;;;;;;;;;;5415738;26;20531;-82
2024/04/09 11:06:15;;;;;;;5.23;4.73;;;;;;;;;;5417895;26;20445;-83
2024/04/09 11:08:42;;;;;;;5.20;4.53;;;;;;;;;;5417608;26;20525;-81
2024/04/09 11:11:08;;;;;;;4.40;4.10;;;;;;;;;;5417286;26;20836;-84
2024/04/09 11:13:34;;;;;;;4.47;4.20;;;;;;;;;;5417643;26;20522;-83
2024/04/09 11:16:01;;;;;;;5.40;4.17;;;;;;;;;;5417020;26;20555;-83
2024/04/09 11:18:28;;;;;;;4.80;4.40;;;;;;;;;;5417053;26;20540;-84
2024/04/09 11:20:55;;;;;;;5.07;4.50;;;;;;;;;;5417032;26;20464;-83
2024/04/09 11:23:22;;;;;;;5.00;4.50;;;;;;;;;;5415846;26;20924;-82
2024/04/09 11:25:48;;;;;;;5.00;4.53;;;;;;;;;;5418154;26;20445;-82
2024/04/09 11:28:14;;;;;;;6.40;4.70;;;;;;;;;;5416729;26;20844;-82
2024/04/09 11:30:46;;;;;;;4.90;4.60;;;;;;;;;;5415314;26;20505;-82
2024/04/09 11:33:15;;;;;;;4.67;4.27;;;;;;;;;;5417154;26;20452;-82
2024/04/09 11:35:41;;;;;;;5.90;4.50;;;;;;;;;;5417182;26;20821;-80
2024/04/09 11:38:09;;;;;;;5.37;4.70;;;;;;;;;;5417210;26;20465;-82
2024/04/09 11:40:35;;;;;;;5.57;5.00;;;;;;;;;;5416769;26;20504;-83
2024/04/09 11:43:01;;;;;;;5.43;4.97;;;;;;;;;;5415729;26;20433;-83
2024/04/09 11:45:28;;;;;;;5.40;4.90;;;;;;;;;;5416238;26;20508;-83
2024/04/09 11:47:54;;;;;;;4.83;4.50;;;;;;;;;;5417607;26;20424;-84
2024/04/09 11:50:21;;;;;;;4.47;4.13;;;;;;;;;;5416790;26;20563;-82
2024/04/09 11:52:47;;;;;;;5.00;4.43;;;;;;;;;;5416858;26;20585;-85
2024/04/09 11:55:13;;;;;;;6.10;4.33;;;;;;;;;;5415978;26;20441;-83
2024/04/09 11:57:40;;;;;;;5.83;4.23;;;;;;;;;;5416638;26;20833;-82
2024/04/09 12:00:07;;;;;;;4.30;4.10;;;;;;;;;;5416746;26;20476;-83
2024/04/09 12:02:33;;;;;;;5.10;4.70;;;;;;;;;;5416169;26;20868;-83
2024/04/09 12:05:00;;;;;;;5.17;4.77;;;;;;;;;;5416645;26;20485;-84
2024/04/09 12:07:25;;;;;;;5.00;4.60;;;;;;;;;;5405096;26;20491;-83
2024/04/09 12:09:51;;;;;;;4.60;4.30;;;;;;;;;;5396349;26;20421;-82
2024/04/09 12:12:17;;;;;;;4.80;4.50;;;;;;;;;;5416104;26;20425;-83
2024/04/09 12:14:43;;;;;;;5.10;4.70;;;;;;;;;;5391313;26;20528;-82
2024/04/09 12:17:09;;;;;;;3.80;3.60;;;;;;;;;;5380682;26;20443;-82
2024/04/09 12:19:37;;;;;;;4.13;3.80;;;;;;;;;;5379666;26;20996;-84
2024/04/09 12:22:03;;;;;;;5.13;4.83;;;;;;;;;;5401386;26;20488;-83
2024/04/09 12:24:31;;;;;;;4.87;4.30;;;;;;;;;;5415670;26;20456;-83
2024/04/09 12:26:57;;;;;;;4.50;4.10;;;;;;;;;;5416153;26;20465;-83
2024/04/09 12:29:24;;;;;;;4.30;4.00;;;;;;;;;;5415521;26;20445;-82
2024/04/09 12:31:50;;;;;;;3.80;3.50;;;;;;;;;;5415901;26;20444;-83
2024/04/09 12:34:17;;;;;;;4.23;3.87;;;;;;;;;;5415725;26;20780;-82
2024/04/09 12:36:43;;;;;;;5.93;4.10;;;;;;;;;;5415313;26;20535;-84
2024/04/09 12:39:09;;;;;;;3.87;3.60;;;;;;;;;;5415590;26;20452;-84
2024/04/09 12:41:35;;;;;;;4.93;4.53;;;;;;;;;;5414455;26;20469;-83
2024/04/09 12:44:01;;;;;;;7.23;4.20;;;;;;;;;;5415929;26;20582;-83
2024/04/09 12:46:27;;;;;;;6.47;4.37;;;;;;;;;;5415807;26;20420;-83
2024/04/09 12:48:53;;;;;;;5.00;4.70;;;;;;;;;;5415613;26;20445;-83
2024/04/09 12:51:19;;;;;;;7.80;4.13;;;;;;;;;;5415103;26;20940;-83
2024/04/09 12:53:46;;;;;;;4.10;3.70;;;;;;;;;;5415757;26;20456;-84
2024/04/09 12:56:12;;;;;;;4.37;3.97;;;;;;;;;;5417674;26;20963;-83
2024/04/09 12:58:38;;;;;;;5.33;3.90;;;;;;;;;;5417784;26;20797;-82
2024/04/09 13:01:06;;;;;;;4.13;3.73;;;;;;;;;;5419225;26;20505;-83
2024/04/09 13:03:32;;;;;;;4.20;3.60;;;;;;;;;;5419222;26;20488;-83
2024/04/09 13:05:59;;;;;;;10.23;4.00;;;;;;;;;;5417555;26;20448;-83
2024/04/09 13:08:25;;;;;;;4.30;4.00;;;;;;;;;;5403693;26;20865;-81
2024/04/09 13:10:51;;;;;;;4.70;4.10;;;;;;;;;;5394738;26;20491;-83
2024/04/09 13:13:17;;;;;;;4.93;4.40;;;;;;;;;;5417179;26;20460;-83
2024/04/09 13:15:43;;;;;;;4.50;4.30;;;;;;;;;;5411379;26;20516;-81
2024/04/09 13:18:09;;;;;;;7.53;5.10;;;;;;;;;;5383584;26;20446;-82
2024/04/09 13:20:35;;;;;;;4.87;4.50;;;;;;;;;;5383354;26;20447;-83
2024/04/09 13:23:01;;;;;;;5.00;4.60;;;;;;;;;;5391930;26;20497;-83
2024/04/09 13:25:27;;;;;;;5.20;4.90;;;;;;;;;;5418885;26;20775;-80
2024/04/09 13:27:53;;;;;;;4.93;4.63;;;;;;;;;;5420124;26;20563;-81
2024/04/09 13:30:19;;;;;;;4.20;4.00;;;;;;;;;;5419426;26;20851;-80
2024/04/09 13:32:47;;;;;;;4.87;4.50;;;;;;;;;;5390730;26;20510;-80
2024/04/09 13:35:13;;;;;;;6.17;4.50;;;;;;;;;;5384089;26;20493;-84
2024/04/09 13:37:43;;;;;;;5.00;4.60;;;;;;;;;;5383279;26;20442;-81
2024/04/09 13:40:09;;;;;;;3.93;3.73;;;;;;;;;;5403313;26;20453;-81
2024/04/09 13:42:45;;;;;;;4.70;4.30;;;;;;;;;;5418865;26;20539;-80
2024/04/09 13:45:11;;;;;;;4.63;4.30;;;;;;;;;;5419675;26;20441;-81
2024/04/09 13:47:38;;;;;;;6.47;4.97;;;;;;;;;;5419056;26;20968;-80
2024/04/09 13:50:07;;;;;;;4.33;3.93;;;;;;;;;;5419499;26;20444;-81
2024/04/09 13:52:33;;;;;;;6.40;4.07;;;;;;;;;;5418884;26;21090;-80
2024/04/09 13:55:00;;;;;;;4.30;4.00;;;;;;;;;;5419366;26;20414;-80
2024/04/09 13:57:26;;;;;;;3.83;3.57;;;;;;;;;;5419281;26;20485;-82
2024/04/09 13:59:52;;;;;;;3.90;3.60;;;;;;;;;;5419881;26;20768;-80
2024/04/09 14:02:19;;;;;;;3.90;3.70;;;;;;;;;;5418650;26;20452;-81
2024/04/09 14:04:45;;;;;;;3.50;3.30;;;;;;;;;;5419154;26;20785;-80
2024/04/09 14:07:12;;;;;;;4.73;4.43;;;;;;;;;;5418492;26;20926;-81
2024/04/09 14:09:42;;;;;;;4.80;4.40;;;;;;;;;;5418390;26;20504;-81
2024/04/09 14:12:08;;;;;;;5.13;4.17;;;;;;;;;;5418627;26;20456;-80
2024/04/09 14:14:34;;;;;;;4.50;4.10;;;;;;;;;;5418684;26;20893;-80
2024/04/09 14:17:00;;;;;;;5.93;5.10;;;;;;;;;;5418093;26;20500;-82
2024/04/09 14:19:26;;;;;;;4.30;4.10;;;;;;;;;;5418286;26;20421;-82
2024/04/09 14:21:52;;;;;;;4.60;4.00;;;;;;;;;;5418771;26;20493;-80
2024/04/09 14:24:18;;;;;;;4.30;4.00;;;;;;;;;;5418697;26;20570;-84
2024/04/09 14:26:45;;;;;;;5.10;4.70;;;;;;;;;;5418236;26;20472;-80
2024/04/09 14:29:11;;;;;;;5.30;4.90;;;;;;;;;;5418795;26;20498;-80
2024/04/09 14:31:37;;;;;;;5.20;4.80;;;;;;;;;;5417976;26;20516;-80
2024/04/09 14:34:04;;;;;;;7.20;4.40;;;;;;;;;;5419047;26;20444;-79
2024/04/09 14:36:30;;;;;;;4.57;3.70;;;;;;;;;;5414612;26;20441;-80
2024/04/09 14:38:57;;;;;;;4.80;4.40;;;;;;;;;;5400626;26;20458;-80